Bookmark and Share
Track history (hours):
 

Zim Vancouver

Last reported at 2014-Apr-21 14:26 UTC. Time now 2014-Apr-23 09:45 UTC.
Position N 41°28' E 029°39'.

Length 260 m; draft 9.7 m.

Type: Ship (hazmat cat A). MMSI: 636013214.

NotesDate/timePositionNaut miles runAvg speedWind from/ knotsBaromVisibWave heightAir tempDewpointWater temp
2014-Apr-21 14:26N 41°28' E 029°39'1917.3
2014-Apr-21 13:21N 41°20' E 029°17'122 3.8
2014-Apr-20 05:33N 40°28' E 026°51'6513.0
2014-Apr-20 00:34N 39°46' E 025°46'11719.4
2014-Apr-19 18:33N 37°49' E 025°44'1817.7
2014-Apr-19 17:33N 37°33' E 025°51'43618.2
2014-Apr-18 17:34N 33°35' E 033°21'2719.1
2014-Apr-18 16:09N 33°22' E 033°49'4918.9
2014-Apr-18 13:33N 32°56' E 034°38'  
2014-Apr-15 14:30N 32°54' E 034°59'0 0.0
2014-Apr-15 11:30N 32°54' E 034°59'0 0.0
2014-Apr-15 09:33N 32°54' E 034°59'0 0.1
2014-Apr-15 07:33N 32°54' E 034°59'0 0.1
2014-Apr-15 06:33N 32°54' E 034°59'15 5.0
2014-Apr-15 03:34N 32°56' E 034°42'1515.3
2014-Apr-15 02:34N 32°58' E 034°23'1615.7
2014-Apr-15 01:31N 32°48' E 034°08'1515.9
2014-Apr-15 00:33N 32°39' E 033°54'1615.8
2014-Apr-14 23:33N 32°28' E 033°40'1615.9
2014-Apr-14 22:33N 32°18' E 033°25'1515.6
2014-Apr-14 21:34N 32°08' E 033°12'1615.1
2014-Apr-14 20:31N 31°57' E 032°58'  

Dump ship's entire track history

sailing weather and tide predictions

Zim Vancouver — A8LK5 — position and weather